Time;durP1;ratioP1;P1;durP2;ratioP2;P2;SDS_P1;SDS_P2;PMS_P1;PMS_P2;Temp;Humidity;BMP_temperature;BMP_pressure;BME280_temperature;BME280_humidity;BME280_pressure;Samples;Min_cycle;Max_cycle;Signal;HPM_P1;HPM_P2
2022/02/12 00:00:22;;;;;;;4.77;1.40;;;0.60;99.90;;;;;;4222379;28;20520;-81
2022/02/12 00:02:24;;;;;;;5.97;2.13;;;0.50;99.90;;;;;;4222567;28;20477;-81
2022/02/12 00:04:25;;;;;;;7.93;1.60;;;0.50;99.90;;;;;;4220283;28;20489;-81
2022/02/12 00:06:27;;;;;;;4.90;1.50;;;0.50;99.90;;;;;;4218154;28;20824;-79
2022/02/12 00:08:29;;;;;;;4.07;1.57;;;0.50;99.90;;;;;;4217150;28;20491;-81
2022/02/12 00:10:32;;;;;;;2.80;1.40;;;0.40;99.90;;;;;;4222243;28;20531;-80
2022/02/12 00:12:33;;;;;;;4.93;1.30;;;0.40;99.90;;;;;;4220844;28;20535;-81
2022/02/12 00:14:35;;;;;;;3.63;1.20;;;0.40;99.90;;;;;;4217511;28;20570;-79
2022/02/12 00:16:38;;;;;;;3.80;1.13;;;0.40;99.90;;;;;;4221568;28;20451;-81
2022/02/12 00:18:40;;;;;;;3.77;1.10;;;0.30;99.90;;;;;;4221972;28;20455;-79
2022/02/12 00:20:42;;;;;;;2.10;1.10;;;0.30;99.90;;;;;;4218143;28;21164;-80
2022/02/12 00:22:44;;;;;;;2.87;1.10;;;0.30;99.90;;;;;;4217635;28;20478;-78
2022/02/12 00:24:46;;;;;;;5.50;0.90;;;0.20;99.90;;;;;;4219757;28;20450;-81
2022/02/12 00:26:48;;;;;;;3.20;1.03;;;0.20;99.90;;;;;;4219276;28;20500;-79
2022/02/12 00:28:49;;;;;;;5.80;1.33;;;0.20;99.90;;;;;;4223569;28;20463;-81
2022/02/12 00:30:51;;;;;;;2.77;0.90;;;0.10;99.90;;;;;;4222081;28;20677;-79
2022/02/12 00:32:54;;;;;;;1.60;1.00;;;0.10;99.90;;;;;;4219056;28;20521;-81
2022/02/12 00:34:56;;;;;;;2.30;1.10;;;0.10;99.90;;;;;;4220036;28;20496;-79
2022/02/12 00:36:58;;;;;;;4.17;1.10;;;0.10;99.90;;;;;;4218267;28;20470;-80
2022/02/12 00:39:00;;;;;;;6.47;1.30;;;0.10;99.90;;;;;;4220542;28;20455;-80
2022/02/12 00:41:01;;;;;;;5.13;1.10;;;0.10;99.90;;;;;;4220911;28;20491;-78
2022/02/12 00:43:03;;;;;;;6.27;1.30;;;0.00;99.90;;;;;;4217538;28;20941;-78
2022/02/12 00:45:06;;;;;;;4.07;1.03;;;0.00;99.90;;;;;;4221145;28;20507;-79
2022/02/12 00:47:09;;;;;;;3.53;1.40;;;0.00;99.90;;;;;;4216613;28;20454;-79
2022/02/12 00:49:12;;;;;;;5.30;1.30;;;0.00;99.90;;;;;;4215383;28;20550;-79
2022/02/12 00:51:14;;;;;;;3.07;1.20;;;0.00;99.90;;;;;;4219044;28;20482;-77
2022/02/12 00:53:15;;;;;;;2.57;1.33;;;-0.10;99.90;;;;;;4221541;28;20454;-76
2022/02/12 00:55:17;;;;;;;5.17;1.30;;;-0.10;99.90;;;;;;4218156;28;20490;-77
2022/02/12 00:57:19;;;;;;;4.43;1.53;;;-0.10;99.90;;;;;;4210136;28;21018;-78
2022/02/12 00:59:21;;;;;;;3.90;1.30;;;-0.10;99.90;;;;;;4206985;28;20451;-78
2022/02/12 01:01:22;;;;;;;2.83;1.20;;;-0.10;99.90;;;;;;4203251;28;20816;-77
2022/02/12 01:03:24;;;;;;;1.70;1.00;;;-0.10;99.90;;;;;;4205567;28;20472;-77
2022/02/12 01:05:27;;;;;;;3.43;1.40;;;-0.20;99.90;;;;;;4201956;28;20960;-79
2022/02/12 01:07:29;;;;;;;3.80;1.53;;;-0.20;99.90;;;;;;4210703;28;20474;-79
2022/02/12 01:09:31;;;;;;;3.77;1.30;;;-0.20;99.90;;;;;;4211412;28;20467;-77
2022/02/12 01:11:32;;;;;;;4.67;1.77;;;-0.20;99.90;;;;;;4209335;28;20754;-77
2022/02/12 01:13:34;;;;;;;3.13;1.20;;;-0.30;99.90;;;;;;4206525;28;20968;-80
2022/02/12 01:15:36;;;;;;;4.63;1.60;;;-0.30;99.90;;;;;;4212920;28;20487;-77
2022/02/12 01:17:39;;;;;;;2.63;1.20;;;-0.30;99.90;;;;;;4211303;28;20468;-78
2022/02/12 01:19:40;;;;;;;5.57;1.33;;;-0.30;99.90;;;;;;4209643;28;20471;-78
2022/02/12 01:21:44;;;;;;;4.47;1.50;;;-0.30;99.90;;;;;;4210263;28;20937;-77
2022/02/12 01:23:46;;;;;;;3.00;1.20;;;-0.30;99.90;;;;;;4210824;28;20510;-77
2022/02/12 01:25:48;;;;;;;5.97;1.20;;;-0.30;99.90;;;;;;4212864;28;21009;-76
2022/02/12 01:27:50;;;;;;;2.73;1.10;;;-0.30;99.90;;;;;;4212999;28;20947;-77
2022/02/12 01:29:52;;;;;;;5.37;1.63;;;-0.40;99.90;;;;;;4212634;28;20466;-77
2022/02/12 01:31:55;;;;;;;4.47;1.50;;;-0.40;99.90;;;;;;4210872;28;20553;-83
2022/02/12 01:33:56;;;;;;;4.00;1.30;;;-0.40;99.90;;;;;;4209017;28;20494;-78
2022/02/12 01:35:58;;;;;;;5.13;1.37;;;-0.40;99.90;;;;;;4210879;28;20751;-78
2022/02/12 01:38:01;;;;;;;4.67;1.57;;;-0.40;99.90;;;;;;4220872;28;20490;-78
2022/02/12 01:40:04;;;;;;;4.53;1.33;;;-0.50;99.90;;;;;;4220339;28;20493;-79
2022/02/12 01:42:07;;;;;;;4.03;1.30;;;-0.50;99.90;;;;;;4212215;28;20439;-79
2022/02/12 01:44:10;;;;;;;2.20;1.00;;;-0.50;99.90;;;;;;4205582;28;20469;-77
2022/02/12 01:46:11;;;;;;;4.87;1.30;;;-0.50;99.90;;;;;;4217057;28;20507;-80
2022/02/12 01:48:13;;;;;;;3.00;1.20;;;-0.50;99.90;;;;;;4203215;28;20471;-79
2022/02/12 01:50:15;;;;;;;2.50;1.17;;;-0.50;99.90;;;;;;4198916;28;20945;-79
2022/02/12 01:52:20;;;;;;;4.83;1.67;;;-0.50;99.90;;;;;;4200668;28;20574;-78
2022/02/12 01:54:25;;;;;;;4.00;1.40;;;-0.50;99.90;;;;;;4217068;28;20478;-79
2022/02/12 01:56:28;;;;;;;3.60;1.27;;;-0.50;99.90;;;;;;4215282;28;20517;-80
2022/02/12 01:58:30;;;;;;;3.33;1.00;;;-0.50;99.90;;;;;;4206389;28;20532;-77
2022/02/12 02:00:31;;;;;;;5.83;1.07;;;-0.50;99.90;;;;;;4209218;28;20492;-80
2022/02/12 02:02:33;;;;;;;1.70;1.20;;;-0.50;99.90;;;;;;4216657;28;20536;-77
2022/02/12 02:04:35;;;;;;;2.87;1.43;;;-0.50;99.90;;;;;;4208754;28;20963;-79
2022/02/12 02:06:37;;;;;;;5.23;1.30;;;-0.40;99.90;;;;;;4211196;28;20460;-79
2022/02/12 02:08:41;;;;;;;3.47;1.30;;;-0.50;99.90;;;;;;4202391;28;20521;-79
2022/02/12 02:10:45;;;;;;;4.20;1.30;;;-0.30;99.90;;;;;;4195565;28;20476;-79
2022/02/12 02:12:47;;;;;;;6.97;1.50;;;-0.40;99.90;;;;;;4206080;28;20475;-79
2022/02/12 02:14:48;;;;;;;5.77;1.67;;;-0.30;99.90;;;;;;4195794;28;20518;-79
2022/02/12 02:16:50;;;;;;;5.67;1.30;;;-0.30;99.90;;;;;;4207240;28;20455;-80
2022/02/12 02:18:52;;;;;;;2.10;1.20;;;-0.30;99.90;;;;;;4202100;28;20452;-79
2022/02/12 02:20:54;;;;;;;4.03;1.43;;;-0.30;99.90;;;;;;4216363;22;20500;-76
2022/02/12 02:22:58;;;;;;;3.07;1.50;;;-0.30;99.90;;;;;;4205169;28;20520;-76
2022/02/12 02:25:00;;;;;;;3.90;1.67;;;-0.30;99.90;;;;;;4212131;28;20447;-75
2022/02/12 02:27:06;;;;;;;3.00;1.33;;;-0.30;99.90;;;;;;4212402;28;20459;-77
2022/02/12 02:29:08;;;;;;;9.33;1.57;;;-0.30;99.90;;;;;;4211339;28;20881;-76
2022/02/12 02:31:10;;;;;;;10.10;1.90;;;-0.20;99.90;;;;;;4210335;28;20853;-76
2022/02/12 02:33:12;;;;;;;6.40;1.63;;;-0.30;99.90;;;;;;4204631;28;20456;-77
2022/02/12 02:35:16;;;;;;;8.90;2.00;;;-0.30;99.90;;;;;;4202129;28;21068;-77
2022/02/12 02:37:18;;;;;;;4.37;1.90;;;-0.30;99.90;;;;;;4207118;28;20464;-76
2022/02/12 02:39:21;;;;;;;7.30;1.97;;;-0.30;99.90;;;;;;4195850;28;20464;-77
2022/02/12 02:41:23;;;;;;;5.43;1.60;;;-0.30;99.90;;;;;;4208413;28;20540;-75
2022/02/12 02:43:27;;;;;;;6.43;1.80;;;-0.30;99.90;;;;;;4211225;28;20462;-76
2022/02/12 02:45:28;;;;;;;4.00;1.70;;;-0.30;99.90;;;;;;4207119;28;20551;-76
2022/02/12 02:47:33;;;;;;;3.73;2.00;;;-0.30;99.90;;;;;;4202444;28;20465;-76
2022/02/12 02:49:35;;;;;;;5.83;2.20;;;-0.30;99.90;;;;;;4200999;28;20498;-76
2022/02/12 02:56:13;;;;;;;4.07;2.07;;;-0.30;99.90;;;;;;4155884;28;20495;-78
2022/02/12 02:58:15;;;;;;;4.37;1.70;;;-0.30;99.90;;;;;;4209872;28;20458;-79
2022/02/12 03:00:18;;;;;;;6.20;1.83;;;-0.30;99.90;;;;;;4216833;28;20521;-76
2022/02/12 03:02:20;;;;;;;5.20;1.70;;;-0.30;99.90;;;;;;4217862;28;20893;-79
2022/02/12 03:04:22;;;;;;;9.17;2.30;;;-0.30;99.90;;;;;;4223754;28;20947;-76
2022/02/12 03:06:26;;;;;;;3.60;1.60;;;-0.40;99.90;;;;;;4208514;28;20459;-78
2022/02/12 03:08:29;;;;;;;8.03;1.80;;;-0.40;99.90;;;;;;4212315;28;20468;-76
2022/02/12 03:10:31;;;;;;;8.23;2.20;;;-0.40;99.90;;;;;;4220877;28;20489;-77
2022/02/12 03:12:35;;;;;;;7.20;2.13;;;-0.40;99.90;;;;;;4213840;28;20470;-78
2022/02/12 03:14:37;;;;;;;5.50;1.80;;;-0.40;99.90;;;;;;4198219;28;20826;-78
2022/02/12 03:16:39;;;;;;;6.00;2.00;;;-0.40;99.90;;;;;;4206140;28;20979;-78
2022/02/12 03:18:42;;;;;;;4.33;1.57;;;-0.40;99.90;;;;;;4221273;28;20451;-78
2022/02/12 03:20:44;;;;;;;5.97;2.43;;;-0.40;99.90;;;;;;4214499;28;20494;-77
2022/02/12 03:22:46;;;;;;;5.30;1.93;;;-0.40;99.90;;;;;;4200017;28;20456;-76
2022/02/12 03:24:47;;;;;;;4.70;1.93;;;-0.40;99.90;;;;;;4213769;28;20474;-76
2022/02/12 03:26:49;;;;;;;2.93;1.80;;;-0.40;99.90;;;;;;4198337;28;20865;-77
2022/02/12 03:28:52;;;;;;;6.87;1.93;;;-0.40;99.90;;;;;;4197104;28;20537;-77
2022/02/12 03:30:54;;;;;;;4.20;1.63;;;-0.40;99.90;;;;;;4197943;28;20473;-76
2022/02/12 03:32:56;;;;;;;4.83;1.80;;;-0.50;99.90;;;;;;4197897;28;20452;-77
2022/02/12 03:34:58;;;;;;;6.40;1.87;;;-0.50;99.90;;;;;;4204151;28;20917;-76
2022/02/12 03:36:59;;;;;;;7.27;1.90;;;-0.50;99.90;;;;;;4209018;28;20505;-78
2022/02/12 03:39:03;;;;;;;6.27;1.70;;;-0.50;99.90;;;;;;4198139;28;20499;-78
2022/02/12 03:41:07;;;;;;;2.83;1.80;;;-0.50;99.90;;;;;;4196933;28;20481;-76
2022/02/12 03:43:10;;;;;;;2.70;1.37;;;-0.50;99.90;;;;;;4211277;28;20477;-76
2022/02/12 03:45:14;;;;;;;4.70;1.50;;;-0.50;99.90;;;;;;4223957;28;20865;-76
2022/02/12 03:47:16;;;;;;;7.83;1.67;;;-0.50;99.90;;;;;;4200581;28;20902;-77
2022/02/12 03:49:17;;;;;;;7.90;1.67;;;-0.50;99.90;;;;;;4212727;28;20467;-78
2022/02/12 03:51:21;;;;;;;3.53;1.47;;;-0.50;99.90;;;;;;4215458;28;20901;-76
2022/02/12 03:53:24;;;;;;;3.53;1.30;;;-0.50;99.90;;;;;;4205418;28;20953;-76
2022/02/12 03:55:25;;;;;;;6.23;1.80;;;-0.60;99.90;;;;;;4200315;28;21026;-76
2022/02/12 03:57:27;;;;;;;5.33;1.83;;;-0.60;99.90;;;;;;4207859;28;20504;-76
2022/02/12 03:59:29;;;;;;;5.97;1.97;;;-0.60;99.90;;;;;;4212187;28;20550;-76
2022/02/12 04:01:32;;;;;;;6.60;1.67;;;-0.60;99.90;;;;;;4209615;28;20545;-76
2022/02/12 04:03:34;;;;;;;4.60;1.80;;;-0.60;99.90;;;;;;4215154;28;20529;-76
2022/02/12 04:05:38;;;;;;;3.23;1.33;;;-0.60;99.90;;;;;;4215230;28;20931;-75
2022/02/12 04:07:42;;;;;;;4.67;1.50;;;-0.70;99.90;;;;;;4210246;28;20465;-76
2022/02/12 04:09:43;;;;;;;4.97;1.60;;;-0.70;99.90;;;;;;4201320;28;20479;-76
2022/02/12 04:11:45;;;;;;;7.93;1.80;;;-0.70;99.90;;;;;;4223226;28;20467;-78
2022/02/12 04:13:47;;;;;;;4.03;1.53;;;-0.70;99.90;;;;;;4197807;28;20882;-77
2022/02/12 04:15:49;;;;;;;5.27;1.83;;;-0.80;99.90;;;;;;4197802;28;20511;-76
2022/02/12 04:17:52;;;;;;;4.63;1.70;;;-0.80;99.90;;;;;;4197413;28;20479;-77
2022/02/12 04:19:54;;;;;;;4.10;1.60;;;-0.80;99.90;;;;;;4212860;28;20909;-76
2022/02/12 04:21:56;;;;;;;5.20;1.30;;;-0.80;99.90;;;;;;4198856;28;20499;-76
2022/02/12 04:23:58;;;;;;;4.43;1.47;;;-0.80;99.90;;;;;;4202402;28;20528;-76
2022/02/12 04:26:01;;;;;;;2.20;1.27;;;-0.80;99.90;;;;;;4204772;28;20455;-75
2022/02/12 04:28:07;;;;;;;4.63;1.77;;;-0.90;99.90;;;;;;4198589;28;20471;-76
2022/02/12 04:30:10;;;;;;;3.23;2.00;;;-0.90;99.90;;;;;;4197862;28;20443;-77
2022/02/12 04:32:13;;;;;;;4.23;2.27;;;-0.90;99.90;;;;;;4208356;28;20479;-75
2022/02/12 04:34:16;;;;;;;3.20;1.73;;;-0.90;99.90;;;;;;4220782;28;20617;-77
2022/02/12 04:36:18;;;;;;;5.33;1.83;;;-0.90;99.90;;;;;;4206569;28;20915;-75
2022/02/12 04:38:20;;;;;;;4.57;1.70;;;-0.90;99.90;;;;;;4212536;28;20447;-76
2022/02/12 04:40:22;;;;;;;4.13;2.10;;;-0.80;99.90;;;;;;4203227;28;20492;-79
2022/02/12 04:42:24;;;;;;;3.23;1.70;;;-1.00;99.90;;;;;;4221077;28;20447;-76
2022/02/12 04:44:26;;;;;;;3.73;1.83;;;-1.00;99.90;;;;;;4205895;28;20476;-77
2022/02/12 04:46:27;;;;;;;8.00;2.13;;;-1.00;99.90;;;;;;4196774;28;20468;-76
2022/02/12 04:48:29;;;;;;;5.27;1.70;;;-1.00;99.90;;;;;;4196556;28;20517;-76
2022/02/12 04:50:32;;;;;;;6.90;1.90;;;-1.00;99.90;;;;;;4197327;28;20483;-75
2022/02/12 04:52:34;;;;;;;7.03;2.00;;;-1.00;99.90;;;;;;4204642;28;20898;-76
2022/02/12 04:54:36;;;;;;;5.13;1.70;;;-1.10;99.90;;;;;;4206517;28;20543;-76
2022/02/12 04:56:38;;;;;;;7.70;2.10;;;-1.10;99.90;;;;;;4202788;28;20488;-77
2022/02/12 04:58:40;;;;;;;5.90;1.90;;;-1.10;99.90;;;;;;4209403;28;20467;-76
2022/02/12 05:00:43;;;;;;;3.97;2.20;;;-1.20;99.90;;;;;;4203847;28;20920;-77
2022/02/12 05:02:46;;;;;;;3.70;1.60;;;-1.20;99.90;;;;;;4220853;28;20539;-76
2022/02/12 05:04:48;;;;;;;5.33;2.20;;;-1.20;99.90;;;;;;4202608;28;20471;-77
2022/02/12 05:06:51;;;;;;;4.47;2.03;;;-1.20;99.90;;;;;;4206577;28;20468;-77
2022/02/12 05:08:53;;;;;;;4.90;2.17;;;-1.20;99.90;;;;;;4202734;28;20454;-76
2022/02/12 05:10:55;;;;;;;5.83;2.27;;;-1.20;99.90;;;;;;4207158;28;20498;-76
2022/02/12 05:12:56;;;;;;;3.20;1.90;;;-1.20;99.90;;;;;;4219284;28;20470;-76
2022/02/12 05:14:58;;;;;;;8.37;2.23;;;-1.20;99.90;;;;;;4205389;28;20848;-76
2022/02/12 05:17:01;;;;;;;6.20;2.07;;;-1.20;99.90;;;;;;4197141;28;21172;-75
2022/02/12 05:19:03;;;;;;;5.37;1.80;;;-1.20;99.90;;;;;;4210439;28;20447;-76
2022/02/12 05:21:04;;;;;;;4.77;1.80;;;-1.20;99.90;;;;;;4213516;28;20908;-76
2022/02/12 05:23:07;;;;;;;4.80;1.70;;;-1.30;99.90;;;;;;4210923;28;20931;-78
2022/02/12 05:25:09;;;;;;;5.60;2.13;;;-1.30;99.90;;;;;;4199965;28;20464;-78
2022/02/12 05:27:11;;;;;;;7.40;2.40;;;-1.30;99.90;;;;;;4195855;28;20834;-75
2022/02/12 05:29:13;;;;;;;4.50;2.27;;;-1.30;99.90;;;;;;4205561;28;20919;-75
2022/02/12 05:31:15;;;;;;;7.17;1.77;;;-1.30;99.90;;;;;;4203971;28;20491;-75
2022/02/12 05:33:17;;;;;;;9.80;2.20;;;-1.30;99.90;;;;;;4209988;28;20462;-77
2022/02/12 05:35:18;;;;;;;5.30;2.40;;;-1.30;99.90;;;;;;4209696;28;20455;-77
2022/02/12 05:37:20;;;;;;;7.07;2.53;;;-1.30;99.90;;;;;;4210874;28;21014;-75
2022/02/12 05:39:23;;;;;;;8.27;2.63;;;-1.30;99.90;;;;;;4210705;28;20940;-75
2022/02/12 05:41:25;;;;;;;4.07;2.30;;;-1.30;99.90;;;;;;4202070;28;21150;-75
2022/02/12 05:43:27;;;;;;;4.90;2.23;;;-1.30;99.90;;;;;;4206666;28;20463;-77
2022/02/12 05:45:29;;;;;;;5.47;2.27;;;-1.30;99.90;;;;;;4201730;28;20478;-76
2022/02/12 05:47:30;;;;;;;7.23;2.30;;;-1.30;99.90;;;;;;4197866;28;20502;-76
2022/02/12 05:49:32;;;;;;;4.40;1.97;;;-1.40;99.90;;;;;;4213372;28;20447;-75
2022/02/12 05:51:34;;;;;;;7.37;2.53;;;-1.40;99.90;;;;;;4207661;28;20482;-77
2022/02/12 05:53:36;;;;;;;6.03;2.10;;;-1.40;99.90;;;;;;4205668;28;20467;-75
2022/02/12 05:55:39;;;;;;;5.83;2.37;;;-1.40;99.90;;;;;;4210413;28;20467;-75
2022/02/12 05:57:41;;;;;;;6.10;2.30;;;-1.20;99.90;;;;;;4212553;28;20439;-77
2022/02/12 05:59:43;;;;;;;3.67;2.17;;;-1.40;99.90;;;;;;4213772;28;20466;-75
2022/02/12 06:01:45;;;;;;;5.53;2.23;;;-1.40;99.90;;;;;;4214570;28;20487;-75
2022/02/12 06:03:46;;;;;;;4.27;2.17;;;-1.40;99.90;;;;;;4209934;28;20463;-75
2022/02/12 06:05:48;;;;;;;7.13;2.27;;;-1.40;99.90;;;;;;4212949;28;20451;-75
2022/02/12 06:07:50;;;;;;;4.97;2.17;;;-1.40;99.90;;;;;;4207202;28;20456;-75
2022/02/12 06:09:52;;;;;;;4.43;1.93;;;-1.40;99.90;;;;;;4203106;28;20198;-76
2022/02/12 06:11:55;;;;;;;12.43;2.23;;;-1.40;99.90;;;;;;4195778;28;20472;-77
2022/02/12 06:13:57;;;;;;;5.77;2.40;;;-1.40;99.90;;;;;;4204057;28;20500;-75
2022/02/12 06:15:58;;;;;;;5.40;2.40;;;-1.40;99.90;;;;;;4222706;28;20487;-75
2022/02/12 06:18:00;;;;;;;3.97;2.00;;;-1.40;99.90;;;;;;4208516;28;20450;-76
2022/02/12 06:20:03;;;;;;;4.30;2.27;;;-1.50;99.90;;;;;;4196702;28;20452;-77
2022/02/12 06:22:05;;;;;;;6.77;2.30;;;-1.50;99.90;;;;;;4200176;28;20467;-76
2022/02/12 06:24:07;;;;;;;6.93;2.40;;;-1.50;99.90;;;;;;4198867;28;20468;-75
2022/02/12 06:26:09;;;;;;;5.10;2.20;;;-1.50;99.90;;;;;;4211732;28;20948;-75
2022/02/12 06:28:12;;;;;;;3.17;1.80;;;-1.50;99.90;;;;;;4212121;28;20947;-75
2022/02/12 06:30:14;;;;;;;4.03;2.10;;;-1.50;99.90;;;;;;4206630;28;20455;-75
2022/02/12 06:32:15;;;;;;;3.80;1.97;;;-1.50;99.90;;;;;;4206550;28;20520;-75
2022/02/12 06:34:19;;;;;;;4.97;1.90;;;-1.50;99.90;;;;;;4206717;28;20529;-76
2022/02/12 06:36:20;;;;;;;5.90;2.20;;;-1.60;99.90;;;;;;4212821;28;21064;-77
2022/02/12 06:38:22;;;;;;;5.27;2.57;;;-1.60;99.90;;;;;;4211947;28;20489;-76
2022/02/12 06:40:24;;;;;;;5.23;2.60;;;-1.60;99.90;;;;;;4200927;28;20494;-75
2022/02/12 06:42:26;;;;;;;5.83;2.07;;;-1.60;99.90;;;;;;4201784;28;20451;-75
2022/02/12 06:44:30;;;;;;;5.50;2.37;;;-1.50;99.90;;;;;;4213963;28;20455;-75
2022/02/12 06:46:31;;;;;;;5.20;2.40;;;-1.60;99.90;;;;;;4215874;28;20490;-75
2022/02/12 06:48:33;;;;;;;6.30;2.30;;;-1.60;99.90;;;;;;4216308;28;20459;-76
2022/02/12 06:50:35;;;;;;;9.43;3.37;;;-1.50;99.90;;;;;;4212677;28;20994;-78
2022/02/12 06:52:37;;;;;;;11.53;4.63;;;-1.50;99.90;;;;;;4211672;28;21010;-76
2022/02/12 06:54:39;;;;;;;8.27;3.80;;;-1.60;99.90;;;;;;4198210;28;20455;-76
2022/02/12 06:56:40;;;;;;;7.67;3.40;;;-1.50;99.90;;;;;;4198471;28;20483;-76
2022/02/12 06:58:42;;;;;;;7.03;3.37;;;-1.50;99.90;;;;;;4208658;28;20520;-77
2022/02/12 07:00:45;;;;;;;6.53;3.03;;;-1.50;99.90;;;;;;4209514;28;20983;-75
2022/02/12 07:02:50;;;;;;;5.87;3.20;;;-1.50;99.90;;;;;;4212910;28;20472;-77
2022/02/12 07:04:52;;;;;;;5.82;2.80;;;-1.50;99.90;;;;;;4220276;28;20553;-75
2022/02/12 07:06:54;;;;;;;6.70;2.33;;;-1.50;99.90;;;;;;4231789;28;20227;-76
2022/02/12 07:08:56;;;;;;;6.67;2.50;;;-1.50;99.90;;;;;;4231857;28;20531;-76
2022/02/12 07:10:57;;;;;;;9.57;2.80;;;-1.50;99.90;;;;;;4210097;28;20506;-79
2022/02/12 07:12:59;;;;;;;5.10;2.07;;;-1.50;99.90;;;;;;4199175;28;20482;-76
2022/02/12 07:15:01;;;;;;;4.70;2.40;;;-1.50;99.90;;;;;;4199062;28;20455;-75
2022/02/12 07:17:04;;;;;;;6.77;2.50;;;-1.50;99.90;;;;;;4199178;28;20549;-75
2022/02/12 07:19:06;;;;;;;9.20;2.70;;;-1.50;99.90;;;;;;4200754;28;20613;-75
2022/02/12 07:21:08;;;;;;;5.73;2.53;;;-1.50;99.90;;;;;;4200704;28;20525;-75
2022/02/12 07:23:10;;;;;;;6.87;2.40;;;-1.40;99.90;;;;;;4208910;28;20467;-77
2022/02/12 07:25:12;;;;;;;5.63;2.53;;;-1.50;99.90;;;;;;4215283;28;20858;-75
2022/02/12 07:27:14;;;;;;;5.73;2.47;;;-1.40;99.90;;;;;;4207849;28;20458;-75
2022/02/12 07:29:16;;;;;;;4.63;2.50;;;-1.50;99.90;;;;;;4216319;28;20522;-77
2022/02/12 07:31:18;;;;;;;7.23;2.50;;;-1.00;99.90;;;;;;4223939;28;20532;-75
2022/02/12 07:33:21;;;;;;;5.28;2.40;;;-1.40;99.90;;;;;;4215009;28;20576;-77
2022/02/12 07:35:23;;;;;;;4.93;2.00;;;-1.40;99.90;;;;;;4213392;28;20247;-75
2022/02/12 07:37:25;;;;;;;4.70;2.30;;;-1.40;99.90;;;;;;4212548;28;20480;-76
2022/02/12 07:39:27;;;;;;;4.65;2.40;;;-1.40;99.90;;;;;;4196926;28;20452;-77
2022/02/12 07:41:33;;;;;;;5.50;2.30;;;-1.40;99.90;;;;;;4204385;28;20225;-77
2022/02/12 07:43:36;;;;;;;7.33;2.40;;;-1.40;99.90;;;;;;4199406;28;20474;-75
2022/02/12 07:45:37;;;;;;;3.43;2.13;;;-1.40;99.90;;;;;;4198489;28;20933;-76
2022/02/12 07:47:39;;;;;;;5.47;2.07;;;-1.40;99.90;;;;;;4202120;28;20463;-77
2022/02/12 07:49:44;;;;;;;5.47;1.97;;;-1.40;99.90;;;;;;4205135;28;20973;-75
2022/02/12 07:51:46;;;;;;;4.07;2.40;;;-1.40;99.90;;;;;;4216894;28;20472;-76
2022/02/12 07:53:47;;;;;;;5.43;2.60;;;-1.40;99.90;;;;;;4230769;28;20507;-75
2022/02/12 07:55:50;;;;;;;8.60;2.53;;;-1.30;99.90;;;;;;4220030;28;20454;-76
2022/02/12 07:57:51;;;;;;;8.80;2.57;;;-1.40;99.90;;;;;;4208694;28;20544;-75
2022/02/12 07:59:53;;;;;;;7.00;2.33;;;-1.30;99.90;;;;;;4215344;28;20532;-76
2022/02/12 08:01:55;;;;;;;3.57;2.57;;;-1.30;99.90;;;;;;4210634;28;20494;-77
2022/02/12 08:03:58;;;;;;;6.33;2.60;;;-1.30;99.90;;;;;;4204055;28;20583;-75
2022/02/12 08:06:02;;;;;;;9.50;2.87;;;-1.20;99.90;;;;;;4209508;28;20492;-75
2022/02/12 08:08:04;;;;;;;6.53;2.60;;;-1.20;99.90;;;;;;4201460;28;20964;-76
2022/02/12 08:12:34;;;;;;;6.73;2.77;;;-1.20;99.90;;;;;;4198618;28;20494;-75
2022/02/12 08:14:35;;;;;;;4.40;2.33;;;-1.20;99.90;;;;;;4201064;28;20472;-76
2022/02/12 08:16:37;;;;;;;4.07;2.10;;;-1.10;99.90;;;;;;4197081;28;20494;-78
2022/02/12 08:18:39;;;;;;;5.07;2.50;;;-1.10;99.90;;;;;;4203673;28;20512;-75
2022/02/12 08:20:40;;;;;;;3.57;2.07;;;-1.10;99.90;;;;;;4214637;28;20478;-77
2022/02/12 08:22:44;;;;;;;4.53;2.53;;;-1.10;99.90;;;;;;4208387;28;20524;-77
2022/02/12 08:24:47;;;;;;;4.33;2.60;;;-1.10;99.90;;;;;;4200895;28;20526;-77
2022/02/12 08:26:48;;;;;;;7.23;3.27;;;-1.00;99.90;;;;;;4203257;28;20689;-77
2022/02/12 08:28:50;;;;;;;6.50;2.80;;;-1.00;99.90;;;;;;4207827;28;20954;-77
2022/02/12 08:30:54;;;;;;;7.77;3.20;;;-0.80;99.90;;;;;;4207310;28;20488;-77
2022/02/12 08:32:56;;;;;;;5.57;2.80;;;-0.90;99.90;;;;;;4208014;28;20849;-77
2022/02/12 08:34:58;;;;;;;7.53;2.73;;;-0.90;99.90;;;;;;4205912;28;20533;-77
2022/02/12 08:37:00;;;;;;;5.03;2.37;;;-0.90;99.90;;;;;;4203934;28;20864;-77
2022/02/12 08:39:03;;;;;;;9.03;2.87;;;-0.80;99.90;;;;;;4198825;28;20929;-76
2022/02/12 08:41:05;;;;;;;5.10;2.63;;;-0.80;99.90;;;;;;4198467;28;20494;-77
2022/02/12 08:43:07;;;;;;;8.70;3.27;;;-0.80;99.90;;;;;;4202078;28;20800;-77
2022/02/12 08:45:10;;;;;;;9.13;2.57;;;-0.70;99.90;;;;;;4200756;28;20532;-77
2022/02/12 08:47:12;;;;;;;8.70;3.03;;;-0.70;99.90;;;;;;4198311;28;20460;-77
2022/02/12 08:49:15;;;;;;;9.53;3.17;;;-0.70;99.90;;;;;;4200375;28;20444;-77
2022/02/12 08:51:17;;;;;;;14.53;3.57;;;-0.60;99.90;;;;;;4198992;28;20480;-77
2022/02/12 08:53:19;;;;;;;11.73;3.10;;;-0.60;99.90;;;;;;4200335;28;20471;-77
2022/02/12 08:55:22;;;;;;;7.37;2.70;;;-0.50;99.90;;;;;;4197689;28;20524;-77
2022/02/12 08:57:24;;;;;;;6.47;2.90;;;-0.50;99.90;;;;;;4200183;28;20492;-78
2022/02/12 08:59:25;;;;;;;12.80;3.10;;;-0.40;99.90;;;;;;4202024;28;20472;-78
2022/02/12 09:01:27;;;;;;;5.90;3.00;;;-0.70;99.90;;;;;;4213263;28;20483;-78
2022/02/12 09:03:29;;;;;;;8.87;3.10;;;-0.40;99.90;;;;;;4205169;28;20506;-77
2022/02/12 09:05:31;;;;;;;9.33;3.20;;;-0.40;99.90;;;;;;4209464;28;20472;-76
2022/02/12 09:07:32;;;;;;;9.30;2.80;;;-0.30;99.90;;;;;;4207411;28;20999;-77
2022/02/12 09:09:35;;;;;;;6.03;2.30;;;-0.30;99.90;;;;;;4205670;28;20451;-79
2022/02/12 09:11:40;;;;;;;8.47;2.93;;;-0.30;99.90;;;;;;4205688;28;20483;-80
2022/02/12 09:13:41;;;;;;;11.07;2.90;;;-0.20;99.90;;;;;;4201416;28;20464;-76
2022/02/12 09:15:43;;;;;;;6.63;2.97;;;-0.20;99.90;;;;;;4204416;28;20448;-76
2022/02/12 09:17:45;;;;;;;10.53;2.40;;;-0.20;99.90;;;;;;4203698;28;20546;-76
2022/02/12 09:19:47;;;;;;;8.27;2.07;;;-0.20;99.90;;;;;;4203266;28;20467;-77
2022/02/12 09:21:49;;;;;;;5.40;1.90;;;-0.10;99.90;;;;;;4204558;28;20481;-76
2022/02/12 09:23:51;;;;;;;7.87;2.40;;;-0.10;99.90;;;;;;4203896;28;20466;-77
2022/02/12 09:25:53;;;;;;;5.57;1.97;;;-0.10;99.90;;;;;;4201766;28;20466;-77
2022/02/12 09:27:56;;;;;;;7.60;2.20;;;0.00;99.90;;;;;;4202462;28;20457;-77
2022/02/12 09:29:59;;;;;;;6.13;2.10;;;0.00;99.90;;;;;;4200147;28;20453;-75
2022/02/12 09:32:00;;;;;;;8.50;2.10;;;0.00;99.90;;;;;;4198482;28;20448;-74
2022/02/12 09:34:02;;;;;;;6.17;2.37;;;0.00;99.90;;;;;;4196908;28;20454;-75
2022/02/12 09:36:05;;;;;;;9.37;2.60;;;0.00;99.90;;;;;;4197444;28;20456;-75
2022/02/12 09:38:07;;;;;;;6.23;2.17;;;0.10;99.90;;;;;;4203043;28;21052;-75
2022/02/12 09:40:09;;;;;;;11.03;2.50;;;0.10;99.90;;;;;;4199255;28;20967;-74
2022/02/12 09:42:11;;;;;;;7.43;1.70;;;0.10;99.90;;;;;;4200186;28;20463;-75
2022/02/12 09:44:16;;;;;;;8.33;2.23;;;0.20;99.90;;;;;;4196294;28;20488;-74
2022/02/12 09:46:36;;;;;;;8.90;2.00;;;0.20;99.90;;;;;;4200492;28;20465;-74
2022/02/12 09:48:40;;;;;;;6.67;1.50;;;0.20;99.90;;;;;;4196105;28;20803;-75
2022/02/12 09:50:42;;;;;;;7.67;1.80;;;0.20;99.90;;;;;;4199312;28;20525;-77
2022/02/12 09:52:48;;;;;;;9.53;2.10;;;0.30;99.90;;;;;;4205813;28;20482;-75
2022/02/12 09:54:50;;;;;;;15.87;2.90;;;0.30;99.90;;;;;;4199135;28;20457;-76
2022/02/12 09:56:52;;;;;;;5.33;1.40;;;0.30;99.90;;;;;;4203450;28;20498;-77
2022/02/12 09:58:54;;;;;;;4.33;1.43;;;0.40;99.90;;;;;;4196053;28;20584;-78
2022/02/12 10:00:57;;;;;;;5.03;1.33;;;0.40;99.90;;;;;;4200328;28;20521;-79
2022/02/12 10:02:59;;;;;;;5.77;1.63;;;0.40;99.90;;;;;;4208663;28;20458;-76
2022/02/12 10:05:17;;;;;;;7.50;1.80;;;0.40;99.90;;;;;;4205278;28;20877;-75
2022/02/12 10:07:22;;;;;;;4.40;1.20;;;0.50;99.90;;;;;;4205386;28;20512;-80
2022/02/12 10:09:24;;;;;;;5.47;1.33;;;0.50;99.90;;;;;;4203512;28;20469;-79
2022/02/12 10:11:38;;;;;;;4.97;1.57;;;0.50;99.90;;;;;;4208210;28;20471;-80
2022/02/12 10:13:40;;;;;;;3.57;1.23;;;0.50;99.90;;;;;;4203308;28;20450;-80
2022/02/12 10:15:43;;;;;;;5.77;1.60;;;0.60;99.90;;;;;;4207926;28;20446;-81
2022/02/12 10:17:57;;;;;;;8.50;1.77;;;0.60;99.90;;;;;;4207945;28;20486;-82
2022/02/12 10:19:59;;;;;;;4.23;1.53;;;0.60;99.90;;;;;;4203077;28;20462;-77
2022/02/12 10:22:15;;;;;;;6.50;1.30;;;0.70;99.90;;;;;;4203108;28;20467;-77
2022/02/12 10:24:40;;;;;;;3.57;1.20;;;0.70;99.90;;;;;;4197005;28;20663;-79
2022/02/12 10:27:01;;;;;;;5.73;1.50;;;0.70;99.90;;;;;;4196172;28;20469;-77
2022/02/12 10:29:04;;;;;;;2.80;1.30;;;0.80;99.90;;;;;;4196478;28;20455;-79
2022/02/12 10:31:06;;;;;;;6.17;1.13;;;0.80;99.90;;;;;;4197425;28;20479;-78
2022/02/12 10:33:10;;;;;;;2.90;1.10;;;0.80;99.90;;;;;;4199822;28;20474;-75
2022/02/12 10:35:12;;;;;;;6.80;1.57;;;0.80;99.90;;;;;;4205673;28;20473;-78
2022/02/12 10:37:16;;;;;;;8.87;2.03;;;0.90;99.90;;;;;;4197712;28;20522;-78
2022/02/12 10:39:17;;;;;;;8.73;1.90;;;0.90;99.90;;;;;;4203892;28;21017;-78
2022/02/12 10:41:22;;;;;;;5.67;1.47;;;0.90;99.90;;;;;;4205699;28;20603;-79
2022/02/12 10:43:27;;;;;;;5.23;1.50;;;1.00;99.90;;;;;;4204000;28;20492;-78
2022/02/12 10:45:29;;;;;;;4.03;1.53;;;1.00;99.90;;;;;;4205235;28;20447;-78